Observations for TREVISO CIV IT-AFB, Italy (LIPH)

LIPH 181420Z 19006KT 080V210 CAVOK 21/07 Q1024  
LIPH 181350Z 10008KT 060V170 CAVOK 21/08 Q1024  
LIPH 181320Z VRB05KT CAVOK 21/06 Q1024 WS R07   
LIPH 181320Z VRB05KT CAVOK 21/06 Q1024 RMK WS R07
LIPH 181250Z 14006KT 060V190 CAVOK 21/08 Q1025  
LIPH 181220Z VRB04KT CAVOK 20/05 Q1025  
LIPH 181150Z 09004KT 020V170 CAVOK 20/06 Q1025  
LIPH 181120Z 10006KT 030V170 CAVOK 20/06 Q1025  
LIPH 181050Z 11007KT 060V180 CAVOK 20/06 Q1025  
LIPH 181020Z 06008KT 020V110 CAVOK 19/05 Q1025  
LIPH 180950Z 10006KT 060V170 CAVOK 19/05 Q1025  
LIPH 180920Z 07007KT 050V110 CAVOK 19/05 Q1025  
LIPH 180850Z 07008KT CAVOK 18/07 Q1025  
LIPH 180820Z 08009KT CAVOK 18/05 Q1025  
LIPH 180750Z 07009KT CAVOK 17/05 Q1025  
LIPH 180720Z 07006KT 040V100 CAVOK 16/05 Q1025  
LIPH 180650Z 04003KT 350V080 CAVOK 15/06 Q1025  
LIPH 180620Z 02003KT CAVOK 13/05 Q1025  
LIPH 180550Z 36003KT CAVOK 12/05 Q1025  
LIPH 180520Z 35003KT CAVOK 11/05 Q1024  
LIPH 180450Z AUTO 35002KT 9999 NCD 10/04 Q1024  
LIPH 180420Z AUTO 01002KT 9999 NCD 11/04 Q1024  
LIPH 180350Z AUTO 01004KT 9999 SCT075/// 11/05 Q1024
LIPH 180350Z AUTO 01004KT 9999 SCT075 11/05 Q1024
LIPH 180320Z AUTO 36005KT 9999 BKN071/// 11/05 Q1024
LIPH 180320Z AUTO 36005KT 9999 BKN071 11/05 Q1024
LIPH 180250Z AUTO 01004KT 9999 NCD 12/05 Q1024  
LIPH 180220Z AUTO 02005KT 9999 SCT092/// 12/06 Q1024
LIPH 180220Z AUTO 02005KT 9999 SCT092 12/06 Q1024
LIPH 180150Z AUTO 03005KT 9999 BKN091/// 13/07 Q1024
LIPH 180150Z AUTO 03005KT 9999 BKN091 13/07 Q1024
LIPH 180120Z AUTO 03004KT 360V060 9999 NCD 13/07 Q1023  
LIPH 180050Z AUTO 03005KT 360V060 9999 NCD 13/08 Q1023  
LIPH 180020Z AUTO 04004KT 9000 NCD 12/09 Q1023  
LIPH 172350Z AUTO 02004KT 8000 NCD 12/09 Q1023  
LIPH 172320Z AUTO 01005KT 340V040 8000 NCD 12/09 Q1023  
LIPH 172250Z AUTO 07005KT 8000 NCD 12/09 Q1023  
LIPH 172220Z AUTO 05005KT 010V070 9999 FEW100/// 12/08 Q1022
LIPH 172220Z AUTO 05005KT 010V070 9999 FEW100 12/08 Q1022
LIPH 172150Z AUTO 36003KT 9999 BKN100/// 13/08 Q1022
LIPH 172150Z AUTO 36003KT 9999 BKN100 13/08 Q1022
LIPH 172120Z AUTO 04003KT 360V070 9999 NCD 12/07 Q1021  
LIPH 172050Z VRB02KT CAVOK 13/08 Q1021  
LIPH 172020Z VRB02KT CAVOK 14/07 Q1021  
LIPH 171950Z VRB01KT CAVOK 16/07 Q1020  
LIPH 171920Z 00000KT CAVOK 16/06 Q1020  
LIPH 171850Z 21003KT 160V240 CAVOK 17/06 Q1020  
LIPH 171820Z 20003KT CAVOK 18/06 Q1019  
LIPH 171750Z 19003KT CAVOK 20/05 Q1019  
LIPH 171720Z 20004KT CAVOK 20/05 Q1019  
LIPH 171650Z 20005KT 170V230 CAVOK 21/05 Q1019  
LIPH 171620Z 18005KT 140V220 CAVOK 21/05 Q1019  
LIPH 171550Z 21005KT 170V250 CAVOK 22/07 Q1019  
LIPH 171520Z 20006KT 140V240 CAVOK 22/08 Q1019  
LIPH 171450Z 19005KT 160V230 CAVOK 22/07 Q1019  
LIPH 171420Z 15006KT 120V190 CAVOK 21/07 Q1019  
LIPH 171350Z 20005KT 150V270 CAVOK 21/08 Q1019